Aviation Digital Data Service (ADDS)

Output produced by METARs form (0909 UTC 06 February 2016)
found at http://aviationweather.gov/adds/metars/
 
KARA 060532Z 0606/0706 VRB03KT P6SM SKC 
     FM061300 07006KT P6SM BKN100 
     FM061800 VRB04KT P6SM BKN080 
     FM062300 35004KT P6SM SCT120